Concepcion, Argentina
Current Conditions -  °F | °C
As of 6:00 PM on Thursday 27 Nov 2014 (Local Time) from SANT Reporting Station
Scattered Clouds Scattered Clouds  
Wind Chill: 86°   Ceiling: Unl
Heat Index: 87°   Visibility: 6mi
Dew Point: 63°   Wind: 14mph
Humidity: 45%   Direction: 50°NE
Pressure: 29.88"   Gusts: NA
Location:  27.33°S, 65.58°W
Report Text: SANT 272100Z 05012KT 9999 SCT040 SCT04530/17 Q1012
Loading
Personal Weather Stations






























Interactive Weather Map New forecast layout! Learn more

10-Day Weather Forecast

Advertisements
Track Severe Weather on mobile